createdAt,value
2023-02-11T00:02:02.217Z,49.78
2023-02-11T00:04:29.940Z,52.00
2023-02-11T00:07:45.534Z,60.60
2023-02-11T00:10:58.075Z,54.58
2023-02-11T00:15:54.053Z,56.00
2023-02-11T00:19:14.048Z,51.13
2023-02-11T00:21:41.217Z,69.45
2023-02-11T00:24:16.769Z,66.25
2023-02-11T00:26:45.978Z,70.93
2023-02-11T00:29:17.258Z,67.97
2023-02-11T00:31:44.691Z,71.68
2023-02-11T00:34:12.122Z,72.65
2023-02-11T00:36:39.707Z,68.53
2023-02-11T00:39:10.163Z,52.03
2023-02-11T00:41:37.409Z,51.78
2023-02-11T00:44:05.773Z,48.05
2023-02-11T00:46:41.893Z,50.08
2023-02-11T00:49:15.541Z,48.08
2023-02-11T00:52:03.834Z,51.58
2023-02-11T00:54:40.566Z,46.33
2023-02-11T00:57:07.928Z,52.03
2023-02-11T00:59:37.881Z,54.97
2023-02-11T01:02:07.684Z,53.88
2023-02-11T01:04:40.902Z,42.35
2023-02-11T01:07:14.362Z,34.72
2023-02-11T01:09:59.276Z,34.72
2023-02-11T01:12:37.453Z,34.50
2023-02-11T01:15:08.725Z,33.38
2023-02-11T01:17:36.768Z,33.58
2023-02-11T01:20:16.590Z,33.60
2023-02-11T01:25:41.274Z,38.55
2023-02-11T01:28:25.956Z,45.50
2023-02-11T01:31:00.919Z,48.92
2023-02-11T01:33:28.515Z,50.30
2023-02-11T01:35:56.152Z,51.35
2023-02-11T01:39:02.553Z,53.05
2023-02-11T01:41:35.298Z,53.10
2023-02-11T01:44:22.759Z,55.22
2023-02-11T01:46:55.716Z,54.38
2023-02-11T01:49:29.845Z,50.25
2023-02-11T01:52:17.729Z,46.10
2023-02-11T01:55:18.340Z,44.03
2023-02-11T01:57:51.121Z,42.95
2023-02-11T02:00:50.883Z,43.40
2023-02-11T02:03:46.582Z,41.75
2023-02-11T02:06:44.329Z,40.22
2023-02-11T02:09:51.419Z,41.00
2023-02-11T02:17:03.373Z,40.28
2023-02-11T02:24:33.478Z,41.97
2023-02-11T02:27:46.800Z,40.78
2023-02-11T02:30:49.852Z,38.65
2023-02-11T02:34:06.927Z,38.88
2023-02-11T02:37:12.757Z,39.75
2023-02-11T02:39:40.559Z,37.58
2023-02-11T02:42:10.783Z,38.58
2023-02-11T02:44:41.633Z,35.60
2023-02-11T02:47:13.247Z,34.20
2023-02-11T02:49:40.633Z,32.83
2023-02-11T02:56:03.369Z,30.60
2023-02-11T02:58:53.941Z,29.42
2023-02-11T03:01:34.235Z,27.80
2023-02-11T03:06:51.028Z,24.00
2023-02-11T03:09:40.884Z,29.25
2023-02-11T03:12:11.368Z,25.20
2023-02-11T03:17:08.313Z,23.75
2023-02-11T03:19:43.366Z,25.48
2023-02-11T03:22:27.890Z,25.05
2023-02-11T03:24:56.624Z,27.23
2023-02-11T03:27:52.415Z,27.48
2023-02-11T03:30:30.853Z,30.23
2023-02-11T03:33:22.874Z,27.52
2023-02-11T03:35:56.163Z,24.25
2023-02-11T03:38:35.022Z,26.00
2023-02-11T03:41:08.329Z,22.13
2023-02-11T03:43:45.856Z,27.85
2023-02-11T03:46:16.703Z,28.70
2023-02-11T03:48:56.127Z,31.42
2023-02-11T03:51:25.646Z,27.10
2023-02-11T03:53:57.450Z,25.70
2023-02-11T03:56:28.567Z,25.70
2023-02-11T03:58:56.101Z,25.13
2023-02-11T04:04:46.653Z,21.50
2023-02-11T04:07:18.794Z,25.77
2023-02-11T04:09:46.473Z,24.45
2023-02-11T04:12:16.417Z,25.67
2023-02-11T04:14:43.624Z,24.13
2023-02-11T04:17:12.015Z,26.83
2023-02-11T04:19:39.456Z,26.13
2023-02-11T04:22:07.023Z,26.67
2023-02-11T04:24:37.669Z,25.40
2023-02-11T04:27:07.918Z,26.33
2023-02-11T04:29:38.472Z,26.45
2023-02-11T04:32:06.899Z,26.80
2023-02-11T04:34:34.252Z,27.25
2023-02-11T04:37:02.908Z,27.13
2023-02-11T04:39:30.156Z,28.23
2023-02-11T04:41:57.471Z,30.40
2023-02-11T04:44:28.107Z,33.38
2023-02-11T04:46:55.638Z,31.20
2023-02-11T04:49:26.194Z,28.92
2023-02-11T04:51:53.486Z,27.80
2023-02-11T04:54:23.080Z,28.40
2023-02-11T04:56:51.671Z,27.40
2023-02-11T04:59:22.223Z,27.50
2023-02-11T05:01:50.505Z,27.77
2023-02-11T05:04:20.976Z,28.63
2023-02-11T05:06:48.356Z,26.95
2023-02-11T05:09:18.270Z,27.30
2023-02-11T05:11:48.478Z,26.23
2023-02-11T05:14:15.746Z,24.73
2023-02-11T05:16:43.430Z,27.13
2023-02-11T05:19:13.380Z,28.88
2023-02-11T05:21:47.749Z,27.27
2023-02-11T05:24:24.178Z,27.38
2023-02-11T05:26:51.847Z,27.67
2023-02-11T05:29:20.173Z,22.63
2023-02-11T05:31:47.417Z,21.63
2023-02-11T05:34:14.734Z,22.05
2023-02-11T05:36:42.241Z,21.83
2023-02-11T05:39:09.626Z,22.00
2023-02-11T05:41:41.005Z,21.05
2023-02-11T05:44:09.449Z,20.25
2023-02-11T05:46:36.857Z,22.02
2023-02-11T05:49:08.677Z,21.80
2023-02-11T05:51:35.996Z,22.25
2023-02-11T05:54:05.537Z,23.25
2023-02-11T05:56:32.804Z,25.02
2023-02-11T05:59:00.678Z,23.17
2023-02-11T06:01:31.136Z,27.95
2023-02-11T06:03:58.509Z,25.33
2023-02-11T06:06:26.973Z,26.27
2023-02-11T06:09:02.639Z,25.48
2023-02-11T06:11:30.003Z,21.30
2023-02-11T06:14:01.650Z,20.30
2023-02-11T06:16:29.017Z,20.27
2023-02-11T06:18:58.889Z,23.50
2023-02-11T06:21:36.377Z,23.98
2023-02-11T06:24:13.463Z,25.13
2023-02-11T06:26:40.965Z,23.20
2023-02-11T06:29:08.740Z,24.33
2023-02-11T06:31:39.539Z,22.65
2023-02-11T06:34:08.437Z,22.27
2023-02-11T06:39:20.793Z,23.95
2023-02-11T06:41:48.097Z,22.83
2023-02-11T06:44:15.326Z,21.65
2023-02-11T06:46:57.001Z,20.83
2023-02-11T06:49:27.111Z,20.55
2023-02-11T06:52:04.888Z,19.13
2023-02-11T06:54:32.148Z,20.60
2023-02-11T06:56:59.330Z,21.45
2023-02-11T06:59:26.941Z,19.20
2023-02-11T07:01:54.467Z,18.95
2023-02-11T07:04:24.764Z,21.02
2023-02-11T07:06:51.947Z,20.30
2023-02-11T07:09:19.392Z,18.25
2023-02-11T07:11:46.765Z,19.52
2023-02-11T07:14:14.090Z,19.23
2023-02-11T07:16:41.416Z,17.55
2023-02-11T07:19:08.805Z,17.83
2023-02-11T07:21:36.182Z,18.58
2023-02-11T07:24:10.344Z,16.17
2023-02-11T07:26:38.154Z,16.15
2023-02-11T07:29:07.877Z,15.30
2023-02-11T07:31:59.857Z,15.32
2023-02-11T07:34:30.955Z,17.02
2023-02-11T07:36:58.438Z,16.25
2023-02-11T07:39:27.659Z,15.77
2023-02-11T07:41:58.317Z,16.00
2023-02-11T07:44:25.702Z,17.17
2023-02-11T07:46:53.457Z,15.50
2023-02-11T07:49:20.754Z,17.17
2023-02-11T07:51:49.250Z,17.90
2023-02-11T07:54:16.492Z,18.45
2023-02-11T07:56:44.185Z,17.23
2023-02-11T07:59:14.153Z,18.60
2023-02-11T08:01:41.877Z,19.13
2023-02-11T08:04:09.595Z,17.67
2023-02-11T08:06:45.475Z,18.13
2023-02-11T08:09:19.293Z,18.92
2023-02-11T08:11:46.767Z,18.48
2023-02-11T08:14:14.117Z,18.23
2023-02-11T08:16:42.807Z,20.48
2023-02-11T08:19:15.677Z,24.65
2023-02-11T08:21:43.256Z,25.98
2023-02-11T08:26:44.881Z,27.63
2023-02-11T08:29:14.773Z,29.15
2023-02-11T08:31:44.609Z,36.13
2023-02-11T08:34:14.534Z,32.70
2023-02-11T08:36:43.452Z,34.90
2023-02-11T08:39:19.602Z,34.30
2023-02-11T08:41:56.983Z,34.47
2023-02-11T08:44:24.779Z,33.35
2023-02-11T08:46:52.419Z,31.70
2023-02-11T08:49:21.059Z,34.10
2023-02-11T08:51:52.173Z,32.95
2023-02-11T08:54:21.864Z,32.63
2023-02-11T08:56:55.167Z,29.50
2023-02-11T08:59:22.615Z,31.50
2023-02-11T09:01:53.629Z,30.10
2023-02-11T09:04:40.819Z,31.77
2023-02-11T09:07:19.418Z,30.23
2023-02-11T09:09:57.949Z,29.90
2023-02-11T09:12:34.659Z,29.63
2023-02-11T09:15:03.756Z,28.45
2023-02-11T09:17:31.113Z,32.15
2023-02-11T09:19:58.323Z,46.97
2023-02-11T09:22:25.535Z,50.88
2023-02-11T09:24:53.740Z,47.75
2023-02-11T09:27:24.928Z,54.90
2023-02-11T09:29:52.432Z,37.20
2023-02-11T09:32:19.576Z,29.17
2023-02-11T09:34:48.795Z,26.52
2023-02-11T09:37:18.853Z,25.55
2023-02-11T09:39:52.995Z,25.15
2023-02-11T09:42:30.792Z,25.67
2023-02-11T09:45:00.593Z,23.35
2023-02-11T09:47:43.227Z,23.63
2023-02-11T09:50:16.940Z,23.63
2023-02-11T09:52:58.943Z,22.15
2023-02-11T09:55:30.189Z,21.30
2023-02-11T09:57:59.080Z,22.65
2023-02-11T10:00:33.653Z,21.25
2023-02-11T10:03:31.774Z,21.17
2023-02-11T10:06:11.579Z,20.42
2023-02-11T10:08:47.987Z,21.35
2023-02-11T10:11:31.345Z,20.85
2023-02-11T10:14:32.838Z,20.15
2023-02-11T10:17:15.405Z,30.50
2023-02-11T10:20:17.054Z,25.95
2023-02-11T10:22:51.301Z,56.35
2023-02-11T10:25:23.428Z,31.73
2023-02-11T10:27:54.986Z,21.30
2023-02-11T10:30:28.304Z,19.65
2023-02-11T10:33:23.322Z,19.35
2023-02-11T10:35:50.682Z,18.48
2023-02-11T10:38:18.512Z,17.83
2023-02-11T10:40:46.423Z,18.90
2023-02-11T10:43:16.149Z,18.55
2023-02-11T10:45:49.822Z,17.67
2023-02-11T10:48:38.336Z,17.17
2023-02-11T10:51:19.642Z,16.77
2023-02-11T10:54:19.889Z,15.93
2023-02-11T10:56:54.607Z,14.77
2023-02-11T10:59:32.040Z,15.68
2023-02-11T11:03:06.910Z,14.75
2023-02-11T11:05:48.719Z,15.25
2023-02-11T11:08:22.952Z,14.98
2023-02-11T11:11:12.348Z,16.08
2023-02-11T11:13:44.070Z,24.27
2023-02-11T11:16:14.652Z,32.83
2023-02-11T11:18:47.139Z,43.55
2023-02-11T11:21:19.557Z,72.75
2023-02-11T11:23:56.457Z,71.03
2023-02-11T11:26:27.697Z,41.80
2023-02-11T11:29:02.681Z,26.77
2023-02-11T11:31:35.287Z,19.55
2023-02-11T11:34:33.060Z,17.20
2023-02-11T11:37:20.125Z,16.90
2023-02-11T11:40:01.026Z,16.65
2023-02-11T11:42:35.228Z,17.00
2023-02-11T11:45:23.355Z,15.70
2023-02-11T11:48:47.593Z,16.77
2023-02-11T11:51:16.436Z,15.45
2023-02-11T11:54:16.792Z,17.00
2023-02-11T11:57:20.218Z,17.30
2023-02-11T11:59:50.552Z,16.13
2023-02-11T12:02:47.612Z,16.20
2023-02-11T12:05:53.042Z,15.63
2023-02-11T12:08:37.335Z,14.98
2023-02-11T12:11:16.440Z,15.98
2023-02-11T12:14:17.899Z,15.70
2023-02-11T12:18:15.834Z,15.05
2023-02-11T12:21:34.879Z,14.15
2023-02-11T12:24:49.281Z,14.27
2023-02-11T12:32:03.927Z,16.08
2023-02-11T12:34:42.863Z,15.07
2023-02-11T12:37:24.371Z,15.95
2023-02-11T12:40:01.195Z,16.08
2023-02-11T12:43:34.331Z,16.10
2023-02-11T12:46:21.038Z,15.07
2023-02-11T12:49:36.335Z,15.90
2023-02-11T12:52:48.195Z,16.38
2023-02-11T12:55:43.236Z,15.15
2023-02-11T12:58:42.890Z,15.30
2023-02-11T13:05:29.614Z,14.63
2023-02-11T13:08:09.411Z,13.90
2023-02-11T13:10:43.592Z,14.40
2023-02-11T13:13:46.379Z,14.23
2023-02-11T13:16:30.036Z,14.52
2023-02-11T13:19:29.927Z,13.80
2023-02-11T13:22:37.389Z,13.25
2023-02-11T13:26:00.372Z,13.75
2023-02-11T13:28:51.462Z,13.40
2023-02-11T13:34:57.866Z,14.35
2023-02-11T13:40:57.056Z,12.43
2023-02-11T13:44:03.178Z,13.30
2023-02-11T13:47:08.907Z,12.93
2023-02-11T13:49:41.169Z,13.38
2023-02-11T13:52:31.240Z,13.80
2023-02-11T13:55:35.278Z,13.18
2023-02-11T13:58:28.675Z,13.90
2023-02-11T14:01:17.240Z,13.68
2023-02-11T14:04:37.941Z,13.60
2023-02-11T14:07:58.456Z,13.57
2023-02-11T14:10:43.703Z,12.75
2023-02-11T14:13:25.816Z,12.82
2023-02-11T14:16:14.008Z,14.43
2023-02-11T14:19:04.150Z,13.85
2023-02-11T14:29:02.308Z,12.80
2023-02-11T14:32:13.425Z,13.05
2023-02-11T14:35:34.709Z,12.65
2023-02-11T14:38:24.023Z,14.45
2023-02-11T14:41:18.286Z,14.05
2023-02-11T14:43:54.073Z,14.05
2023-02-11T14:46:25.467Z,35.28
2023-02-11T14:49:13.865Z,48.08
2023-02-11T14:51:53.597Z,15.18
2023-02-11T14:57:31.768Z,69.60
2023-02-11T15:00:21.136Z,53.70
2023-02-11T15:02:54.927Z,31.85
2023-02-11T15:05:29.504Z,46.00
2023-02-11T15:08:02.631Z,45.38
2023-02-11T15:10:47.441Z,27.70
2023-02-11T15:14:07.840Z,13.77
2023-02-11T15:17:19.362Z,14.82
2023-02-11T15:19:53.702Z,17.02
2023-02-11T15:22:36.182Z,16.98
2023-02-11T15:25:17.956Z,14.07
2023-02-11T15:28:14.036Z,13.10
2023-02-11T15:30:47.019Z,14.73
2023-02-11T15:54:39.667Z,16.35
2023-02-11T15:57:50.193Z,18.00
2023-02-11T16:00:20.060Z,19.95
2023-02-11T16:02:49.065Z,19.00
2023-02-11T16:05:37.785Z,19.25
2023-02-11T16:08:32.975Z,18.15
2023-02-11T16:11:09.022Z,17.17
2023-02-11T16:13:46.451Z,17.83
2023-02-11T16:16:27.502Z,18.05
2023-02-11T16:19:04.601Z,17.25
2023-02-11T16:21:39.385Z,20.23
2023-02-11T16:24:16.013Z,19.48
2023-02-11T16:26:50.315Z,21.50
2023-02-11T16:29:23.108Z,22.50
2023-02-11T16:31:52.754Z,23.13
2023-02-11T16:34:25.488Z,27.47
2023-02-11T16:36:53.318Z,108.90
2023-02-11T16:39:26.474Z,33.78
2023-02-11T16:41:53.703Z,42.97
2023-02-11T16:44:20.955Z,33.75
2023-02-11T16:47:03.587Z,25.27
2023-02-11T16:49:35.873Z,23.60
2023-02-11T16:52:07.899Z,23.15
2023-02-11T16:54:40.068Z,25.58
2023-02-11T16:57:22.232Z,24.25
2023-02-11T16:59:51.748Z,25.15
2023-02-11T17:02:24.846Z,27.02
2023-02-11T17:04:58.381Z,25.02
2023-02-11T17:07:25.705Z,26.13
2023-02-11T17:09:53.023Z,25.65
2023-02-11T17:12:20.860Z,23.73
2023-02-11T17:14:48.243Z,19.83
2023-02-11T17:17:15.697Z,17.38
2023-02-11T17:19:42.921Z,17.63
2023-02-11T17:22:11.651Z,20.50
2023-02-11T17:24:39.185Z,22.92
2023-02-11T17:27:06.494Z,22.25
2023-02-11T17:29:33.702Z,23.15
2023-02-11T17:32:00.930Z,21.27
2023-02-11T17:34:29.390Z,24.33
2023-02-11T17:36:58.013Z,24.70
2023-02-11T17:39:26.049Z,25.80
2023-02-11T17:41:53.218Z,26.88
2023-02-11T17:44:20.629Z,26.23
2023-02-11T17:46:47.825Z,25.23
2023-02-11T17:49:16.025Z,26.67
2023-02-11T17:51:43.275Z,27.05
2023-02-11T17:54:17.076Z,26.42
2023-02-11T17:56:50.505Z,26.35
2023-02-11T17:59:18.058Z,29.35
2023-02-11T18:01:45.326Z,31.15
2023-02-11T18:04:18.627Z,72.18
2023-02-11T18:06:46.923Z,44.92
2023-02-11T18:09:15.254Z,40.35
2023-02-11T18:12:02.680Z,40.72
2023-02-11T18:14:30.105Z,36.67
2023-02-11T18:16:57.449Z,33.40
2023-02-11T18:19:24.861Z,38.13
2023-02-11T18:21:52.144Z,34.25
2023-02-11T18:24:19.589Z,32.65
2023-02-11T18:26:46.977Z,31.58
2023-02-11T18:29:14.307Z,30.98
2023-02-11T18:31:42.744Z,30.00
2023-02-11T18:34:11.660Z,27.83
2023-02-11T18:36:39.618Z,30.73
2023-02-11T18:39:07.266Z,31.52
2023-02-11T18:41:35.306Z,33.65
2023-02-11T18:44:04.754Z,35.17
2023-02-11T18:46:43.063Z,37.90
2023-02-11T18:52:26.264Z,41.13
2023-02-11T18:54:58.347Z,41.60
2023-02-11T18:57:25.810Z,38.63
2023-02-11T18:59:53.014Z,40.40
2023-02-11T19:02:20.265Z,40.55
2023-02-11T19:04:50.769Z,103.30
2023-02-11T19:10:25.551Z,55.58
2023-02-11T19:15:29.990Z,98.82
2023-02-11T19:17:59.998Z,61.40
2023-02-11T19:20:27.679Z,50.42
2023-02-11T19:22:54.951Z,50.88
2023-02-11T19:25:22.154Z,49.03
2023-02-11T19:27:50.404Z,49.97
2023-02-11T19:30:18.488Z,49.25
2023-02-11T19:32:45.630Z,46.63
2023-02-11T19:35:12.947Z,47.55
2023-02-11T19:37:40.113Z,45.65
2023-02-11T19:40:08.931Z,42.40
2023-02-11T19:42:36.354Z,41.15
2023-02-11T19:45:04.199Z,46.60
2023-02-11T19:47:31.581Z,48.90
2023-02-11T19:49:58.832Z,45.15
2023-02-11T19:52:28.488Z,42.30
2023-02-11T19:54:55.654Z,45.33
2023-02-11T19:57:28.560Z,43.13
2023-02-11T20:00:17.402Z,43.78
2023-02-11T20:02:44.935Z,42.55
2023-02-11T20:05:12.268Z,43.72
2023-02-11T20:07:39.509Z,41.88
2023-02-11T20:10:08.597Z,46.05
2023-02-11T20:12:41.015Z,43.50
2023-02-11T20:15:10.651Z,45.53
2023-02-11T20:17:38.594Z,44.88
2023-02-11T20:20:08.608Z,45.58
2023-02-11T20:22:39.692Z,49.22
2023-02-11T20:25:17.772Z,48.70
2023-02-11T20:27:59.571Z,49.47
2023-02-11T20:30:29.725Z,48.72
2023-02-11T20:32:58.569Z,46.97
2023-02-11T20:35:29.012Z,47.67
2023-02-11T20:37:57.528Z,51.40
2023-02-11T20:40:26.908Z,48.53
2023-02-11T20:42:57.908Z,46.58
2023-02-11T20:45:40.077Z,45.70
2023-02-11T20:48:10.517Z,46.35
2023-02-11T20:50:37.980Z,51.53
2023-02-11T20:53:05.933Z,46.85
2023-02-11T20:55:38.212Z,45.55
2023-02-11T20:58:07.932Z,58.30
2023-02-11T21:00:36.418Z,45.30
2023-02-11T21:03:04.863Z,57.65
2023-02-11T21:05:32.441Z,53.90
2023-02-11T21:07:59.744Z,40.92
2023-02-11T21:10:27.572Z,39.42
2023-02-11T21:12:57.286Z,38.63
2023-02-11T21:15:34.938Z,40.63
2023-02-11T21:18:02.777Z,39.85
2023-02-11T21:20:30.070Z,38.53
2023-02-11T21:22:57.386Z,37.47
2023-02-11T21:25:24.937Z,35.50
2023-02-11T21:27:52.159Z,35.35
2023-02-11T21:30:19.623Z,40.25
2023-02-11T21:32:46.940Z,39.00
2023-02-11T21:35:14.243Z,39.85
2023-02-11T21:37:41.611Z,38.65
2023-02-11T21:40:10.625Z,39.65
2023-02-11T21:42:38.250Z,40.20
2023-02-11T21:45:06.048Z,40.15
2023-02-11T21:47:33.429Z,43.55
2023-02-11T21:50:00.762Z,40.17
2023-02-11T21:52:28.132Z,42.40
2023-02-11T21:54:55.364Z,41.45
2023-02-11T21:57:22.663Z,42.05
2023-02-11T21:59:49.958Z,40.72
2023-02-11T22:02:18.349Z,40.67
2023-02-11T22:04:45.611Z,45.25
2023-02-11T22:07:12.849Z,39.35
2023-02-11T22:09:41.073Z,39.95
2023-02-11T22:12:09.122Z,39.55
2023-02-11T22:14:37.579Z,44.70
2023-02-11T22:17:06.144Z,44.25
2023-02-11T22:19:34.366Z,40.75
2023-02-11T22:22:01.961Z,38.67
2023-02-11T22:24:30.114Z,40.63
2023-02-11T22:26:57.508Z,39.88
2023-02-11T22:29:24.785Z,37.80
2023-02-11T22:31:58.242Z,39.25
2023-02-11T22:34:25.773Z,40.00
2023-02-11T22:37:08.662Z,37.13
2023-02-11T22:39:39.068Z,38.65
2023-02-11T22:42:06.515Z,41.83
2023-02-11T22:44:33.724Z,42.75
2023-02-11T22:47:01.178Z,41.15
2023-02-11T22:49:29.158Z,41.65
2023-02-11T22:51:56.416Z,40.10
2023-02-11T22:54:23.777Z,37.80
2023-02-11T22:56:52.412Z,37.00
2023-02-11T22:59:20.461Z,34.00
2023-02-11T23:01:48.352Z,36.17
2023-02-11T23:04:17.328Z,35.92
2023-02-11T23:06:48.146Z,34.65
2023-02-11T23:09:15.405Z,36.20
2023-02-11T23:11:42.935Z,69.93
2023-02-11T23:14:12.375Z,64.88
2023-02-11T23:16:42.510Z,58.00
2023-02-11T23:19:12.599Z,45.28
2023-02-11T23:21:40.333Z,45.50
2023-02-11T23:24:13.296Z,40.45
2023-02-11T23:26:42.442Z,38.92
2023-02-11T23:29:10.575Z,36.58
2023-02-11T23:31:40.640Z,36.20
2023-02-11T23:34:09.231Z,37.55
2023-02-11T23:36:37.176Z,38.90
2023-02-11T23:39:05.210Z,35.72
2023-02-11T23:41:32.550Z,38.38
2023-02-11T23:43:59.848Z,37.88
2023-02-11T23:46:28.433Z,47.53
2023-02-11T23:48:55.670Z,56.42
2023-02-11T23:51:24.485Z,60.20
2023-02-11T23:53:52.977Z,53.95
2023-02-11T23:56:23.760Z,55.75
2023-02-11T23:58:53.159Z,46.28
